Jump to content


AMERICAN AIRLINES FLIGHT AA716 FLOWN ON 09-19-2017 BY CAPTAIN JIM BOERMAN

Pilot StatsCaptain Jim Boerman (LDP136) • 4,616.9 total hours • 1,400 total flights [View Logbook]
FLIGHT DETAILS
StatusReceived and approved on 2017-09-19 at 16:09:40
Origin AirportLos Angeles Intl (KLAX) • Los Angeles, California, United States (126 feet MSL)
Filed Flight PlanKLAX JUGLI J10 RUSTT J128 TBC J64 RSK J110 ALS J102 SLN J24 MCI J80 ZANDR Q480 BEETS J110 LARRI J230 BYRDD KPHL
Destination AirportPhiladelphia Intl (KPHL) • Philadelphia, Pennsylvania, United States (36 feet MSL)
Alternate AirportKennedy Intl (KJFK) • New York, New York, United States (13 feet MSL)
AirlineAmerican Airlines
AircraftBoeing 757-200 | Winglets (75W / B757-200)
FS Aircraft UsedQWSim Boeing 757-200WL AA N611AM 2013 QWHDT
Cruising AltitudeFL350
Distance Flown2,082 nautical miles
Passengers Onboard110 passengers (59.14% full)
DEPARTURE DETAILS
Time Out08:25:04
Taxi Data221,950 lbs total with 42,259 lbs of fuel onboard
Takeoff Data08:33:57 (9 minutes after leaving gate/ramp) • 220,679 lbs total • 8° pitch at 172 knots
Departure METARKLAX 191434Z 00000KT 8SM FEW015 OVC030 20/16 A2993 RMK AO2 T02000161
ARRIVAL DETAILS
Landing Data16:06:43 • 184,955 lbs total • 2° pitch doing 133 knots at a rate of -139.95 feet/minute with 4,526 lbs of fuel onboard
Time In16:14:10 (7 minutes after landing)
Ramp Weight184,217 lbs total
Total Fuel Used37,733 lbs
Total Block Time04:37:39 (4.6 hours) while 16 minutes were spent on the ground
Arrival METARKPHL 191954Z 07006KT 7SM -RA SCT050 SCT065 OVC085 24/19 A2988 RMK AO2 SLP118 P0000 T02390189 $
MISCELLANEOUS DETAILS
LiveDISPATCH Version4.8.3.1
FS Version
FSUIPC Version4.93
OS VersionWindows 7 32-bit
Screen Resolution1920 x 1080
Pilot's CommentsNo Comments Reported
FLIGHT MAP